createdAt,value
2019-03-23T00:01:46.349Z,15.87
2019-03-23T00:04:16.425Z,16.33
2019-03-23T00:06:46.485Z,17.67
2019-03-23T00:09:16.590Z,15.97
2019-03-23T00:11:46.665Z,15.27
2019-03-23T00:14:16.751Z,15.10
2019-03-23T00:16:46.817Z,15.60
2019-03-23T00:19:16.931Z,16.97
2019-03-23T00:21:47.018Z,17.67
2019-03-23T00:24:17.227Z,16.33
2019-03-23T00:26:47.300Z,17.70
2019-03-23T00:29:17.367Z,17.80
2019-03-23T00:31:47.460Z,17.47
2019-03-23T00:34:17.544Z,17.00
2019-03-23T00:36:47.633Z,15.83
2019-03-23T00:39:17.697Z,17.50
2019-03-23T00:41:47.792Z,15.60
2019-03-23T00:44:17.895Z,15.13
2019-03-23T00:46:48.017Z,15.23
2019-03-23T00:49:18.083Z,19.23
2019-03-23T00:51:48.167Z,20.90
2019-03-23T00:54:18.230Z,20.73
2019-03-23T00:56:48.339Z,20.90
2019-03-23T00:59:18.400Z,20.13
2019-03-23T01:01:48.469Z,20.03
2019-03-23T01:04:18.549Z,19.70
2019-03-23T01:06:52.279Z,21.87
2019-03-23T01:09:20.431Z,23.90
2019-03-23T01:11:50.511Z,21.17
2019-03-23T01:14:20.598Z,22.30
2019-03-23T01:16:50.732Z,24.13
2019-03-23T01:19:20.811Z,21.83
2019-03-23T01:21:50.869Z,20.13
2019-03-23T01:24:20.941Z,21.37
2019-03-23T01:26:51.029Z,22.00
2019-03-23T01:29:21.102Z,22.90
2019-03-23T01:31:51.291Z,25.00
2019-03-23T01:34:21.444Z,24.77
2019-03-23T01:36:51.547Z,23.47
2019-03-23T01:39:21.625Z,27.43
2019-03-23T01:41:51.721Z,26.77
2019-03-23T01:44:21.807Z,25.63
2019-03-23T01:46:51.953Z,26.40
2019-03-23T01:49:22.035Z,23.37
2019-03-23T01:51:52.152Z,25.70
2019-03-23T01:54:22.267Z,24.27
2019-03-23T01:56:52.339Z,25.50
2019-03-23T01:59:22.423Z,26.43
2019-03-23T02:01:52.503Z,25.53
2019-03-23T02:04:22.591Z,25.37
2019-03-23T02:06:52.671Z,25.83
2019-03-23T02:09:22.764Z,22.83
2019-03-23T02:11:52.860Z,23.20
2019-03-23T02:14:23.003Z,24.77
2019-03-23T02:16:53.098Z,22.43
2019-03-23T02:19:23.181Z,22.73
2019-03-23T02:21:53.283Z,21.80
2019-03-23T02:24:23.358Z,21.00
2019-03-23T02:26:53.491Z,21.40
2019-03-23T02:29:23.592Z,21.40
2019-03-23T02:31:53.699Z,21.33
2019-03-23T02:34:23.748Z,21.13
2019-03-23T02:36:53.827Z,24.63
2019-03-23T02:39:23.937Z,22.60
2019-03-23T02:41:54.043Z,23.63
2019-03-23T02:44:24.106Z,20.90
2019-03-23T02:46:54.201Z,20.00
2019-03-23T02:49:24.285Z,18.63
2019-03-23T02:51:54.441Z,19.47
2019-03-23T02:54:24.515Z,18.50
2019-03-23T02:56:54.602Z,18.90
2019-03-23T02:59:24.737Z,18.27
2019-03-23T03:01:54.840Z,18.40
2019-03-23T03:04:24.923Z,17.57
2019-03-23T03:06:55.011Z,20.10
2019-03-23T03:09:25.188Z,17.93
2019-03-23T03:11:55.270Z,18.50
2019-03-23T03:14:25.364Z,18.60
2019-03-23T03:16:55.480Z,17.07
2019-03-23T03:19:25.550Z,18.67
2019-03-23T03:21:55.629Z,18.10
2019-03-23T03:24:25.806Z,18.87
2019-03-23T03:26:56.001Z,17.83
2019-03-23T03:29:26.078Z,17.70
2019-03-23T03:31:56.163Z,17.70
2019-03-23T03:34:26.268Z,18.40
2019-03-23T03:36:56.363Z,17.23
2019-03-23T03:39:26.461Z,19.07
2019-03-23T03:41:56.521Z,19.03
2019-03-23T03:44:26.626Z,19.37
2019-03-23T03:46:56.710Z,21.70
2019-03-23T03:49:26.811Z,22.07
2019-03-23T03:51:56.880Z,18.67
2019-03-23T03:54:26.976Z,17.90
2019-03-23T03:56:57.098Z,19.03
2019-03-23T03:59:27.221Z,18.50
2019-03-23T04:01:57.317Z,18.07
2019-03-23T04:04:27.410Z,17.97
2019-03-23T04:06:57.498Z,17.17
2019-03-23T04:09:27.571Z,16.23
2019-03-23T04:11:57.632Z,17.90
2019-03-23T04:14:27.729Z,18.40
2019-03-23T04:16:57.837Z,19.40
2019-03-23T04:19:27.882Z,21.03
2019-03-23T04:21:57.972Z,20.87
2019-03-23T04:24:28.074Z,20.43
2019-03-23T04:26:58.252Z,20.10
2019-03-23T04:29:28.342Z,21.10
2019-03-23T04:31:58.415Z,20.30
2019-03-23T04:34:28.508Z,20.43
2019-03-23T04:36:58.597Z,19.70
2019-03-23T04:39:28.728Z,20.40
2019-03-23T04:41:58.794Z,19.30
2019-03-23T04:44:28.879Z,16.93
2019-03-23T04:46:59.002Z,19.40
2019-03-23T04:49:29.120Z,17.43
2019-03-23T04:51:59.212Z,18.20
2019-03-23T04:54:29.297Z,23.03
2019-03-23T04:56:59.365Z,21.43
2019-03-23T04:59:29.577Z,20.57
2019-03-23T05:01:59.649Z,18.87
2019-03-23T05:04:29.791Z,17.33
2019-03-23T05:06:59.853Z,16.57
2019-03-23T05:09:29.929Z,16.30
2019-03-23T05:12:00.018Z,15.00
2019-03-23T05:14:30.176Z,14.50
2019-03-23T05:17:00.249Z,14.70
2019-03-23T05:19:30.337Z,15.07
2019-03-23T05:22:00.438Z,15.47
2019-03-23T05:24:30.516Z,16.43
2019-03-23T05:27:00.612Z,16.90
2019-03-23T05:29:30.808Z,18.80
2019-03-23T05:32:00.899Z,16.90
2019-03-23T05:34:30.992Z,18.10
2019-03-23T05:37:01.066Z,18.03
2019-03-23T05:39:31.152Z,17.57
2019-03-23T05:42:01.280Z,17.93
2019-03-23T05:44:31.435Z,16.93
2019-03-23T05:47:01.507Z,18.40
2019-03-23T05:49:31.653Z,15.40
2019-03-23T05:52:01.726Z,16.63
2019-03-23T05:54:31.832Z,15.13
2019-03-23T05:57:01.906Z,16.80
2019-03-23T05:59:32.096Z,16.80
2019-03-23T06:02:02.192Z,15.97
2019-03-23T06:04:32.349Z,15.30
2019-03-23T06:07:02.427Z,16.73
2019-03-23T06:09:32.534Z,16.73
2019-03-23T06:12:02.630Z,19.83
2019-03-23T06:14:32.745Z,19.70
2019-03-23T06:17:02.845Z,20.40
2019-03-23T06:19:32.988Z,20.73
2019-03-23T06:22:03.047Z,17.90
2019-03-23T06:24:33.195Z,16.53
2019-03-23T06:27:03.257Z,16.30
2019-03-23T06:29:33.338Z,18.23
2019-03-23T06:32:03.420Z,19.03
2019-03-23T06:34:33.499Z,17.70
2019-03-23T06:37:03.626Z,16.60
2019-03-23T06:39:33.703Z,19.60
2019-03-23T06:42:03.816Z,17.73
2019-03-23T06:44:33.865Z,20.40
2019-03-23T06:47:03.962Z,19.30
2019-03-23T06:49:34.071Z,19.53
2019-03-23T06:52:04.234Z,15.80
2019-03-23T06:54:34.307Z,16.40
2019-03-23T06:57:04.491Z,17.40
2019-03-23T06:59:34.589Z,16.50
2019-03-23T07:02:04.749Z,14.80
2019-03-23T07:04:34.837Z,15.37
2019-03-23T07:07:04.943Z,14.23
2019-03-23T07:09:35.051Z,15.63
2019-03-23T07:12:05.157Z,15.80
2019-03-23T07:14:35.310Z,16.40
2019-03-23T07:17:05.368Z,15.60
2019-03-23T07:19:35.448Z,16.33
2019-03-23T07:22:05.533Z,15.60
2019-03-23T07:24:35.647Z,15.80
2019-03-23T07:27:05.818Z,15.97
2019-03-23T07:29:35.927Z,15.03
2019-03-23T07:32:06.348Z,15.80
2019-03-23T07:34:36.579Z,15.13
2019-03-23T07:37:06.685Z,15.73
2019-03-23T07:39:36.786Z,14.67
2019-03-23T07:42:06.848Z,15.97
2019-03-23T07:44:37.043Z,15.90
2019-03-23T07:47:07.153Z,16.03
2019-03-23T07:49:37.230Z,16.43
2019-03-23T07:52:07.315Z,15.10
2019-03-23T07:54:37.412Z,14.93
2019-03-23T07:57:07.502Z,16.87
2019-03-23T07:59:37.582Z,13.50
2019-03-23T08:02:07.659Z,12.90
2019-03-23T08:04:37.751Z,14.40
2019-03-23T08:07:07.817Z,14.80
2019-03-23T08:09:38.153Z,14.30
2019-03-23T08:12:08.336Z,14.60
2019-03-23T08:14:38.416Z,15.00
2019-03-23T08:17:08.486Z,14.57
2019-03-23T08:19:38.624Z,14.47
2019-03-23T08:22:11.165Z,14.80
2019-03-23T08:24:40.548Z,14.10
2019-03-23T08:27:10.816Z,15.60
2019-03-23T08:29:40.934Z,16.03
2019-03-23T08:32:11.050Z,13.10
2019-03-23T08:34:41.140Z,13.53
2019-03-23T08:37:11.311Z,14.80
2019-03-23T08:39:48.431Z,17.27
2019-03-23T08:42:13.396Z,21.10
2019-03-23T08:44:43.497Z,20.03
2019-03-23T08:47:13.621Z,15.57
2019-03-23T08:49:43.736Z,15.00
2019-03-23T08:52:13.864Z,14.83
2019-03-23T08:54:43.950Z,15.47
2019-03-23T08:57:14.051Z,14.37
2019-03-23T08:59:44.322Z,14.20
2019-03-23T09:02:14.539Z,14.10
2019-03-23T09:04:44.613Z,15.30
2019-03-23T09:07:14.692Z,13.63
2019-03-23T09:09:45.265Z,14.00
2019-03-23T09:12:15.401Z,14.63
2019-03-23T09:14:45.572Z,13.43
2019-03-23T09:17:15.747Z,14.67
2019-03-23T09:19:45.959Z,14.17
2019-03-23T09:22:16.063Z,13.30
2019-03-23T09:24:48.950Z,13.10
2019-03-23T09:27:19.265Z,14.53
2019-03-23T09:29:49.474Z,14.10
2019-03-23T09:32:19.677Z,13.70
2019-03-23T09:34:49.771Z,14.10
2019-03-23T09:37:19.842Z,13.10
2019-03-23T09:39:49.931Z,14.00
2019-03-23T09:42:20.138Z,13.83
2019-03-23T09:44:50.251Z,13.40
2019-03-23T09:47:20.352Z,15.20
2019-03-23T09:49:50.544Z,14.07
2019-03-23T09:52:20.614Z,13.90
2019-03-23T09:54:51.863Z,13.70
2019-03-23T09:57:21.984Z,14.53
2019-03-23T09:59:52.083Z,14.20
2019-03-23T10:02:22.172Z,13.37
2019-03-23T10:04:52.381Z,14.13
2019-03-23T10:07:22.563Z,13.20
2019-03-23T10:09:52.674Z,12.83
2019-03-23T10:12:22.768Z,13.00
2019-03-23T10:14:52.921Z,12.83
2019-03-23T10:17:23.025Z,13.70
2019-03-23T10:19:53.130Z,13.30
2019-03-23T10:22:23.225Z,14.30
2019-03-23T10:24:53.321Z,13.57
2019-03-23T10:27:23.431Z,13.33
2019-03-23T10:29:53.510Z,14.20
2019-03-23T10:32:23.624Z,15.50
2019-03-23T10:34:53.743Z,13.10
2019-03-23T10:37:26.043Z,12.90
2019-03-23T10:39:55.847Z,12.97
2019-03-23T10:42:26.024Z,13.50
2019-03-23T10:44:56.141Z,12.90
2019-03-23T10:47:26.397Z,14.23
2019-03-23T10:49:56.552Z,13.17
2019-03-23T10:52:26.651Z,13.13
2019-03-23T10:54:56.773Z,12.10
2019-03-23T10:57:26.894Z,13.07
2019-03-23T10:59:56.997Z,12.33
2019-03-23T11:02:27.077Z,13.63
2019-03-23T11:04:57.197Z,11.50
2019-03-23T11:07:27.300Z,15.50
2019-03-23T11:09:57.514Z,13.70
2019-03-23T11:12:27.629Z,13.77
2019-03-23T11:14:57.717Z,12.53
2019-03-23T11:17:27.800Z,13.33
2019-03-23T11:19:58.551Z,12.43
2019-03-23T11:22:28.877Z,14.17
2019-03-23T11:24:58.994Z,12.67
2019-03-23T11:27:29.287Z,13.83
2019-03-23T11:29:59.436Z,11.43
2019-03-23T11:32:32.295Z,13.67
2019-03-23T11:35:02.713Z,12.73
2019-03-23T11:37:32.952Z,14.77
2019-03-23T11:40:03.119Z,16.40
2019-03-23T11:42:33.299Z,17.13
2019-03-23T11:45:03.471Z,13.93
2019-03-23T11:47:33.831Z,13.87
2019-03-23T11:50:04.280Z,13.87
2019-03-23T11:52:34.419Z,15.00
2019-03-23T11:55:04.627Z,16.57
2019-03-23T11:57:34.831Z,20.13
2019-03-23T12:00:05.056Z,18.40
2019-03-23T12:02:35.157Z,17.60
2019-03-23T12:05:06.058Z,16.83
2019-03-23T12:07:36.459Z,15.30
2019-03-23T12:10:08.081Z,14.93
2019-03-23T12:12:38.286Z,15.50
2019-03-23T12:15:08.368Z,13.33
2019-03-23T12:17:38.475Z,16.50
2019-03-23T12:20:08.752Z,14.50
2019-03-23T12:22:39.057Z,15.70
2019-03-23T12:25:09.254Z,15.10
2019-03-23T12:27:39.372Z,13.60
2019-03-23T12:30:10.758Z,16.07
2019-03-23T12:32:40.820Z,15.70
2019-03-23T12:35:10.923Z,14.00
2019-03-23T12:37:41.012Z,14.27
2019-03-23T12:40:11.175Z,14.03
2019-03-23T12:42:41.268Z,14.10
2019-03-23T12:45:11.439Z,14.53
2019-03-23T12:47:41.652Z,13.40
2019-03-23T12:50:11.767Z,13.90
2019-03-23T12:52:41.857Z,12.70
2019-03-23T12:55:12.099Z,13.60
2019-03-23T12:57:42.207Z,13.03
2019-03-23T13:00:13.023Z,12.17
2019-03-23T13:02:43.128Z,13.83
2019-03-23T13:05:13.387Z,13.07
2019-03-23T13:07:43.470Z,12.90
2019-03-23T13:10:13.567Z,12.20
2019-03-23T13:12:43.714Z,11.60
2019-03-23T13:15:15.432Z,11.77
2019-03-23T13:17:45.559Z,10.87
2019-03-23T13:20:15.729Z,11.57
2019-03-23T13:22:45.920Z,10.90
2019-03-23T13:25:16.172Z,10.97
2019-03-23T13:27:46.372Z,12.57
2019-03-23T13:30:16.543Z,11.73
2019-03-23T13:32:46.604Z,11.00
2019-03-23T13:35:16.730Z,12.27
2019-03-23T13:37:46.939Z,11.93
2019-03-23T13:40:17.051Z,12.97
2019-03-23T13:42:47.145Z,11.23
2019-03-23T13:45:17.236Z,11.03
2019-03-23T13:47:47.423Z,11.40
2019-03-23T13:50:25.598Z,10.23
2019-03-23T13:52:55.752Z,10.97
2019-03-23T13:55:27.610Z,12.37
2019-03-23T13:57:59.653Z,12.07
2019-03-23T14:00:29.716Z,11.00
2019-03-23T14:02:59.820Z,11.13
2019-03-23T14:05:29.890Z,11.60
2019-03-23T14:07:59.956Z,12.27
2019-03-23T14:10:30.039Z,12.97
2019-03-23T14:13:00.131Z,11.20
2019-03-23T14:15:30.223Z,12.30
2019-03-23T14:18:00.326Z,12.27
2019-03-23T14:20:30.411Z,12.40
2019-03-23T14:23:02.910Z,10.73
2019-03-23T14:25:32.389Z,11.00
2019-03-23T14:28:02.489Z,13.73
2019-03-23T14:30:32.667Z,13.30
2019-03-23T14:33:02.757Z,13.23
2019-03-23T14:35:32.941Z,12.00
2019-03-23T14:38:03.060Z,11.63
2019-03-23T14:40:33.165Z,11.43
2019-03-23T14:43:03.263Z,11.73
2019-03-23T14:45:33.345Z,11.93
2019-03-23T14:48:03.447Z,11.10
2019-03-23T14:50:33.596Z,10.87
2019-03-23T14:53:03.794Z,10.67
2019-03-23T14:55:33.873Z,11.60
2019-03-23T14:58:03.985Z,12.27
2019-03-23T15:00:34.915Z,11.40
2019-03-23T15:03:06.152Z,10.30
2019-03-23T15:05:36.384Z,10.93
2019-03-23T15:08:06.482Z,11.37
2019-03-23T15:10:36.568Z,10.67
2019-03-23T15:13:06.792Z,10.40
2019-03-23T15:15:37.000Z,10.83
2019-03-23T15:18:07.133Z,10.70
2019-03-23T15:20:37.212Z,10.33
2019-03-23T15:23:07.460Z,9.43
2019-03-23T15:25:39.456Z,10.20
2019-03-23T15:28:09.403Z,10.13
2019-03-23T15:30:39.523Z,9.80
2019-03-23T15:33:09.599Z,11.20
2019-03-23T15:35:39.693Z,11.27
2019-03-23T15:38:09.801Z,10.73
2019-03-23T15:40:39.867Z,10.60
2019-03-23T15:43:10.244Z,9.90
2019-03-23T15:45:40.347Z,9.73
2019-03-23T15:48:10.441Z,9.87
2019-03-23T15:50:40.667Z,9.80
2019-03-23T15:53:10.747Z,9.23
2019-03-23T15:55:40.841Z,10.80
2019-03-23T15:58:10.942Z,11.83
2019-03-23T16:00:41.037Z,11.13
2019-03-23T16:03:11.281Z,10.30
2019-03-23T16:05:41.362Z,10.60
2019-03-23T16:08:11.558Z,10.83
2019-03-23T16:10:41.660Z,11.23
2019-03-23T16:13:11.774Z,9.70
2019-03-23T16:15:42.149Z,9.90
2019-03-23T16:18:12.248Z,10.57
2019-03-23T16:20:42.317Z,11.43
2019-03-23T16:23:12.401Z,9.83
2019-03-23T16:25:42.516Z,11.97
2019-03-23T16:28:12.607Z,9.63
2019-03-23T16:30:42.662Z,9.50
2019-03-23T16:33:12.742Z,11.00
2019-03-23T16:35:42.845Z,10.40
2019-03-23T16:38:12.956Z,11.30
2019-03-23T16:40:43.017Z,10.23
2019-03-23T16:43:13.104Z,10.53
2019-03-23T16:45:43.254Z,9.63
2019-03-23T16:48:13.353Z,10.63
2019-03-23T16:50:43.435Z,10.60
2019-03-23T16:53:13.543Z,9.63
2019-03-23T16:55:43.606Z,8.90
2019-03-23T16:58:16.318Z,10.60
2019-03-23T17:00:45.564Z,9.73
2019-03-23T17:03:15.654Z,8.20
2019-03-23T17:05:45.753Z,9.40
2019-03-23T17:08:15.834Z,10.03
2019-03-23T17:10:45.919Z,8.80
2019-03-23T17:13:16.050Z,8.80
2019-03-23T17:15:46.163Z,9.60
2019-03-23T17:18:16.255Z,10.23
2019-03-23T17:20:46.331Z,9.53
2019-03-23T17:23:16.404Z,10.20
2019-03-23T17:25:46.516Z,11.23
2019-03-23T17:28:16.595Z,12.10
2019-03-23T17:30:46.675Z,10.70
2019-03-23T17:33:16.791Z,11.30
2019-03-23T17:35:46.909Z,10.13
2019-03-23T17:38:17.003Z,10.77
2019-03-23T17:40:47.075Z,9.10
2019-03-23T17:43:17.128Z,9.13
2019-03-23T17:45:47.247Z,9.40
2019-03-23T17:48:17.401Z,9.13
2019-03-23T17:50:47.491Z,9.60
2019-03-23T17:53:17.683Z,9.63
2019-03-23T17:55:47.837Z,10.27
2019-03-23T17:58:17.918Z,9.13
2019-03-23T18:00:48.069Z,8.50
2019-03-23T18:03:18.255Z,8.63
2019-03-23T18:05:48.347Z,8.67
2019-03-23T18:08:18.415Z,8.40
2019-03-23T18:10:48.515Z,8.70
2019-03-23T18:13:18.621Z,7.40
2019-03-23T18:15:48.752Z,8.70
2019-03-23T18:18:18.869Z,8.00
2019-03-23T18:20:48.963Z,8.50
2019-03-23T18:23:19.140Z,8.57
2019-03-23T18:25:49.247Z,8.60
2019-03-23T18:28:19.310Z,8.13
2019-03-23T18:30:49.427Z,8.70
2019-03-23T18:33:19.498Z,8.40
2019-03-23T18:35:49.609Z,8.77
2019-03-23T18:38:19.689Z,9.07
2019-03-23T18:40:49.790Z,9.63
2019-03-23T18:43:27.562Z,8.40
2019-03-23T18:45:51.851Z,8.07
2019-03-23T18:48:21.939Z,9.83
2019-03-23T18:50:52.062Z,9.23
2019-03-23T18:53:24.044Z,9.10
2019-03-23T18:55:54.013Z,8.10
2019-03-23T18:58:24.165Z,7.60
2019-03-23T19:00:54.487Z,7.53
2019-03-23T19:03:24.574Z,8.40
2019-03-23T19:05:54.665Z,7.17
2019-03-23T19:08:24.753Z,6.57
2019-03-23T19:10:54.875Z,7.00
2019-03-23T19:13:24.936Z,6.37
2019-03-23T19:15:55.028Z,6.17
2019-03-23T19:18:25.105Z,6.10
2019-03-23T19:20:55.198Z,6.60
2019-03-23T19:23:25.294Z,6.87
2019-03-23T19:25:55.398Z,6.93
2019-03-23T19:28:25.476Z,8.50
2019-03-23T19:30:55.543Z,6.53
2019-03-23T19:33:25.630Z,6.30
2019-03-23T19:35:55.812Z,6.43
2019-03-23T19:38:25.883Z,5.47
2019-03-23T19:40:55.971Z,7.23
2019-03-23T19:43:26.040Z,5.70
2019-03-23T19:45:56.158Z,5.43
2019-03-23T19:48:26.266Z,5.07
2019-03-23T19:50:56.337Z,6.10
2019-03-23T19:53:26.406Z,5.47
2019-03-23T19:55:56.521Z,4.80
2019-03-23T19:58:26.669Z,4.33
2019-03-23T20:00:56.719Z,5.33
2019-03-23T20:03:26.800Z,4.53
2019-03-23T20:05:56.949Z,3.60
2019-03-23T20:08:27.044Z,5.20
2019-03-23T20:10:57.129Z,4.90
2019-03-23T20:13:27.242Z,5.07
2019-03-23T20:15:57.330Z,4.70
2019-03-23T20:18:27.430Z,4.90
2019-03-23T20:20:57.535Z,5.10
2019-03-23T20:23:27.646Z,4.90
2019-03-23T20:25:57.758Z,4.40
2019-03-23T20:28:27.865Z,4.57
2019-03-23T20:30:57.947Z,4.80
2019-03-23T20:33:28.136Z,4.80
2019-03-23T20:35:58.213Z,4.60
2019-03-23T20:38:28.298Z,4.23
2019-03-23T20:40:58.401Z,4.70
2019-03-23T20:43:28.519Z,4.80
2019-03-23T20:45:58.653Z,4.20
2019-03-23T20:48:28.786Z,4.60
2019-03-23T20:50:58.882Z,4.33
2019-03-23T20:53:28.977Z,4.90
2019-03-23T20:55:59.086Z,4.80
2019-03-23T20:58:29.159Z,4.10
2019-03-23T21:00:59.263Z,4.27
2019-03-23T21:03:29.425Z,4.17
2019-03-23T21:05:59.497Z,5.03
2019-03-23T21:08:29.571Z,5.10
2019-03-23T21:10:59.811Z,5.70
2019-03-23T21:13:29.894Z,5.00
2019-03-23T21:16:00.028Z,5.63
2019-03-23T21:18:30.105Z,6.07
2019-03-23T21:21:01.147Z,6.00
2019-03-23T21:23:31.316Z,5.73
2019-03-23T21:26:01.450Z,5.07
2019-03-23T21:28:31.526Z,6.17
2019-03-23T21:31:01.750Z,6.60
2019-03-23T21:33:33.508Z,5.53
2019-03-23T21:36:03.769Z,5.80
2019-03-23T21:38:33.903Z,5.50
2019-03-23T21:41:03.977Z,5.10
2019-03-23T21:43:34.153Z,6.13
2019-03-23T21:46:04.264Z,5.37
2019-03-23T21:48:34.418Z,5.60
2019-03-23T21:51:04.482Z,5.63
2019-03-23T21:53:34.549Z,4.37
2019-03-23T21:56:04.633Z,4.50
2019-03-23T21:58:34.759Z,4.20
2019-03-23T22:01:04.835Z,4.80
2019-03-23T22:03:34.911Z,4.30
2019-03-23T22:06:05.033Z,4.40
2019-03-23T22:08:35.120Z,4.10
2019-03-23T22:11:05.188Z,4.13
2019-03-23T22:13:35.247Z,4.00
2019-03-23T22:16:05.485Z,3.40
2019-03-23T22:18:35.577Z,4.83
2019-03-23T22:21:05.637Z,4.40
2019-03-23T22:23:35.722Z,4.47
2019-03-23T22:26:05.783Z,4.90
2019-03-23T22:28:35.859Z,4.10
2019-03-23T22:31:05.907Z,4.60
2019-03-23T22:33:35.981Z,4.27
2019-03-23T22:36:06.039Z,5.00
2019-03-23T22:38:36.124Z,4.43
2019-03-23T22:41:06.199Z,3.50
2019-03-23T22:43:36.300Z,4.80
2019-03-23T22:46:06.337Z,3.83
2019-03-23T22:48:36.416Z,4.20
2019-03-23T22:51:06.494Z,4.53
2019-03-23T22:53:36.580Z,4.37
2019-03-23T22:56:06.647Z,5.23
2019-03-23T22:58:36.724Z,4.70
2019-03-23T23:01:06.793Z,5.00
2019-03-23T23:03:36.843Z,5.70
2019-03-23T23:06:06.929Z,6.60
2019-03-23T23:08:37.013Z,5.03
2019-03-23T23:11:07.059Z,6.60
2019-03-23T23:13:37.139Z,6.40
2019-03-23T23:16:07.201Z,5.57
2019-03-23T23:18:37.286Z,6.13
2019-03-23T23:21:07.372Z,7.00
2019-03-23T23:23:37.445Z,7.27
2019-03-23T23:26:07.513Z,6.77
2019-03-23T23:28:37.607Z,6.57
2019-03-23T23:31:07.694Z,6.50
2019-03-23T23:33:37.765Z,6.10
2019-03-23T23:36:07.820Z,6.67
2019-03-23T23:38:37.876Z,6.33
2019-03-23T23:41:07.955Z,6.50
2019-03-23T23:43:38.062Z,6.17
2019-03-23T23:46:08.141Z,5.53
2019-03-23T23:48:38.214Z,5.13
2019-03-23T23:51:08.274Z,5.17
2019-03-23T23:53:38.435Z,4.80
2019-03-23T23:56:08.520Z,6.33
2019-03-23T23:58:38.577Z,4.40
